Aviation Digital Data Service (ADDS)

Output produced by METARs form (0729 UTC 27 February 2015)
found at http://www.aviationweather.gov/adds/metars/
 
KATL 270520Z 2706/2812 32005KT P6SM SCT250 
     FM271300 34008KT P6SM FEW010 
     FM271500 34008KT P6SM SCT250 
     FM280300 03007KT P6SM SCT025 
     FM280900 06010KT P6SM OVC020